Time;durP1;ratioP1;P1;durP2;ratioP2;P2;SDS_P1;SDS_P2;PMS_P1;PMS_P2;Temp;Humidity;BMP_temperature;BMP_pressure;BME280_temperature;BME280_humidity;BME280_pressure;Samples;Min_cycle;Max_cycle;Signal;HPM_P1;HPM_P2
2022/01/24 00:28:28;;;;;;;18.27;10.43;;;;;;;;;;4219370;34;20113;-65
2022/01/24 00:30:55;;;;;;;18.15;10.63;;;;;;;;;;4206075;34;20124;-63
2022/01/24 00:33:21;;;;;;;20.23;10.85;;;;;;;;;;4219274;34;20102;-63
2022/01/24 00:35:50;;;;;;;20.48;10.32;;;;;;;;;;4219210;34;20517;-63
2022/01/24 00:38:16;;;;;;;20.88;10.32;;;;;;;;;;4219270;34;20105;-65
2022/01/24 00:40:46;;;;;;;18.15;11.05;;;;;;;;;;4206375;34;20128;-66
2022/01/24 00:43:29;;;;;;;20.77;10.63;;;;;;;;;;4219173;34;20101;-65
2022/01/24 00:46:06;;;;;;;18.42;10.45;;;;;;;;;;4219152;34;20128;-63
2022/01/24 00:48:57;;;;;;;22.50;10.88;;;;;;;;;;4219161;34;20096;-63
2022/01/24 00:56:51;;;;;;;17.42;10.10;;;;;;;;;;4206260;34;20203;-65
2022/01/24 00:59:17;;;;;;;14.32;9.73;;;;;;;;;;4219061;34;20184;-64
2022/01/24 01:01:43;;;;;;;16.33;10.20;;;;;;;;;;4206233;34;20104;-65
2022/01/24 01:04:09;;;;;;;18.75;9.63;;;;;;;;;;4218948;34;20133;-66
2022/01/24 01:06:38;;;;;;;19.65;9.95;;;;;;;;;;4218972;34;20457;-63
2022/01/24 01:20:02;;;;;;;18.98;12.20;;;;;;;;;;4207999;34;20113;-66
2022/01/24 01:22:28;;;;;;;23.02;13.68;;;;;;;;;;4205932;34;20123;-65
2022/01/24 01:24:55;;;;;;;23.00;13.18;;;;;;;;;;4205858;34;20211;-65
2022/01/24 01:27:27;;;;;;;21.27;12.82;;;;;;;;;;4218974;34;20512;-66
2022/01/24 01:30:04;;;;;;;19.67;11.95;;;;;;;;;;4218678;34;20121;-65
2022/01/24 01:54:00;;;;;;;21.75;14.23;;;;;;;;;;4207849;34;20093;-63
2022/01/24 01:56:26;;;;;;;18.17;12.55;;;;;;;;;;4206724;34;20105;-63
2022/01/24 01:58:52;;;;;;;20.30;12.10;;;;;;;;;;4218626;34;20529;-63
2022/01/24 02:01:18;;;;;;;16.52;10.70;;;;;;;;;;4218576;34;20133;-63
2022/01/24 02:03:44;;;;;;;16.67;11.48;;;;;;;;;;4205757;34;20136;-64
2022/01/24 02:06:11;;;;;;;16.90;10.25;;;;;;;;;;4205475;34;20128;-64
2022/01/24 02:08:38;;;;;;;13.68;9.05;;;;;;;;;;4218350;34;20105;-63
2022/01/24 02:11:04;;;;;;;14.82;9.95;;;;;;;;;;4218573;34;20121;-63
2022/01/24 02:13:31;;;;;;;13.60;9.13;;;;;;;;;;4205530;34;20129;-64
2022/01/24 02:16:11;;;;;;;11.10;9.02;;;;;;;;;;4218654;34;20551;-63
2022/01/24 02:19:09;;;;;;;10.75;8.65;;;;;;;;;;4218377;34;20469;-63
2022/01/24 02:21:48;;;;;;;11.90;8.32;;;;;;;;;;4218331;34;20249;-62
2022/01/24 02:24:17;;;;;;;15.20;9.85;;;;;;;;;;4218275;34;20124;-62
2022/01/24 02:26:43;;;;;;;17.27;11.10;;;;;;;;;;4218420;34;20105;-61
2022/01/24 02:29:23;;;;;;;18.00;10.82;;;;;;;;;;4218332;34;20527;-63
2022/01/24 02:31:51;;;;;;;18.87;12.18;;;;;;;;;;4205417;34;20101;-63
2022/01/24 02:34:24;;;;;;;18.87;12.13;;;;;;;;;;4205199;34;20189;-64
2022/01/24 02:36:51;;;;;;;16.35;10.80;;;;;;;;;;4218405;34;20093;-63
2022/01/24 02:50:49;;;;;;;17.40;11.05;;;;;;;;;;4218027;34;20197;-64
2022/01/24 02:53:16;;;;;;;17.98;11.43;;;;;;;;;;4204976;34;20109;-63
2022/01/24 02:55:43;;;;;;;16.58;10.50;;;;;;;;;;4205070;34;20212;-63
2022/01/24 02:58:09;;;;;;;15.55;10.68;;;;;;;;;;4205059;34;20423;-63
2022/01/24 03:00:36;;;;;;;15.23;11.00;;;;;;;;;;4217922;34;20099;-64
2022/01/24 03:03:03;;;;;;;18.45;12.18;;;;;;;;;;4217862;34;20114;-64
2022/01/24 03:05:30;;;;;;;18.67;11.30;;;;;;;;;;4217873;34;20529;-64
2022/01/24 03:07:56;;;;;;;17.70;12.48;;;;;;;;;;4217857;34;20519;-64
2022/01/24 03:10:26;;;;;;;16.33;11.73;;;;;;;;;;4204860;34;20120;-64
2022/01/24 03:15:38;;;;;;;17.77;11.93;;;;;;;;;;4217714;33;20132;-63
2022/01/24 03:18:05;;;;;;;19.12;11.57;;;;;;;;;;4205065;34;20101;-64
2022/01/24 03:20:32;;;;;;;15.10;10.93;;;;;;;;;;4204807;34;20137;-66
2022/01/24 03:22:58;;;;;;;16.62;11.70;;;;;;;;;;4217669;34;20488;-62
2022/01/24 03:25:24;;;;;;;17.00;10.93;;;;;;;;;;4204650;34;20510;-62
2022/01/24 03:27:50;;;;;;;15.90;11.73;;;;;;;;;;4219944;33;20417;-62
2022/01/24 03:30:16;;;;;;;13.68;10.02;;;;;;;;;;4226904;33;20204;-61
2022/01/24 03:32:42;;;;;;;16.20;9.98;;;;;;;;;;4220282;33;20113;-62
2022/01/24 03:35:09;;;;;;;15.43;8.68;;;;;;;;;;4218123;33;20121;-63
2022/01/24 03:37:35;;;;;;;12.43;8.60;;;;;;;;;;4231492;33;20109;-68
2022/01/24 03:40:03;;;;;;;16.05;9.40;;;;;;;;;;4206673;33;20112;-71
2022/01/24 03:42:29;;;;;;;18.37;11.55;;;;;;;;;;4217973;33;20231;-64
2022/01/24 03:44:58;;;;;;;17.02;12.35;;;;;;;;;;4223519;33;20218;-64
2022/01/24 03:50:04;;;;;;;17.67;11.93;;;;;;;;;;4217270;34;20169;-65
2022/01/24 03:52:31;;;;;;;15.13;11.50;;;;;;;;;;4204553;34;20097;-64
2022/01/24 03:54:58;;;;;;;17.35;13.80;;;;;;;;;;4218882;34;20094;-64
2022/01/24 03:57:25;;;;;;;19.23;14.68;;;;;;;;;;4204367;34;20208;-63
2022/01/24 03:59:51;;;;;;;24.27;18.52;;;;;;;;;;4219128;33;20105;-63
2022/01/24 04:02:20;;;;;;;29.12;18.77;;;;;;;;;;4226718;33;20117;-66
2022/01/24 04:04:46;;;;;;;24.50;17.23;;;;;;;;;;4231554;33;20193;-64
2022/01/24 04:07:12;;;;;;;24.50;17.02;;;;;;;;;;4222410;33;20105;-64
2022/01/24 04:09:40;;;;;;;26.33;17.45;;;;;;;;;;4219203;34;20109;-64
2022/01/24 04:12:08;;;;;;;20.02;15.30;;;;;;;;;;4217792;34;20209;-64
2022/01/24 04:14:42;;;;;;;20.83;15.05;;;;;;;;;;4203842;33;20536;-64
2022/01/24 04:22:18;;;;;;;20.27;15.57;;;;;;;;;;4217405;34;20895;-64
2022/01/24 04:24:45;;;;;;;25.05;17.40;;;;;;;;;;4218824;34;20104;-64
2022/01/24 04:27:13;;;;;;;30.60;20.77;;;;;;;;;;4218492;34;20554;-64
2022/01/24 04:29:40;;;;;;;25.85;17.60;;;;;;;;;;4206431;34;20085;-64
2022/01/24 04:32:06;;;;;;;25.88;17.95;;;;;;;;;;4218777;34;20123;-64
2022/01/24 04:34:33;;;;;;;23.83;17.50;;;;;;;;;;4218805;33;20113;-63
2022/01/24 04:36:59;;;;;;;22.77;16.30;;;;;;;;;;4194581;34;20093;-64
2022/01/24 04:39:25;;;;;;;22.08;14.73;;;;;;;;;;4218766;34;20113;-64
2022/01/24 04:41:54;;;;;;;21.67;15.07;;;;;;;;;;4218549;33;20144;-64
2022/01/24 04:55:33;;;;;;;15.93;11.90;;;;;;;;;;4209195;34;20265;-64
2022/01/24 04:58:00;;;;;;;18.73;12.98;;;;;;;;;;4217250;34;20117;-64
2022/01/24 05:00:26;;;;;;;14.07;10.88;;;;;;;;;;4216892;34;20109;-64
2022/01/24 05:02:52;;;;;;;16.92;10.68;;;;;;;;;;4227997;33;20117;-65
2022/01/24 05:05:20;;;;;;;14.15;9.07;;;;;;;;;;4230539;33;20518;-62
2022/01/24 05:07:48;;;;;;;11.27;8.80;;;;;;;;;;4218668;33;20537;-61
2022/01/24 05:10:22;;;;;;;12.10;8.60;;;;;;;;;;4218829;33;20116;-62
2022/01/24 05:23:38;;;;;;;10.82;7.15;;;;;;;;;;4218675;34;20090;-62
2022/01/24 05:26:06;;;;;;;11.52;7.45;;;;;;;;;;4218733;34;20550;-61
2022/01/24 05:28:33;;;;;;;13.98;7.85;;;;;;;;;;4218426;34;20564;-61
2022/01/24 05:31:00;;;;;;;12.05;8.07;;;;;;;;;;4217047;33;20129;-62
2022/01/24 05:33:26;;;;;;;14.80;9.32;;;;;;;;;;4192590;34;20133;-61
2022/01/24 05:35:52;;;;;;;18.30;12.93;;;;;;;;;;4217693;34;20470;-62
2022/01/24 05:38:21;;;;;;;19.12;13.10;;;;;;;;;;4217895;34;20137;-61
2022/01/24 05:40:48;;;;;;;17.25;12.57;;;;;;;;;;4217632;33;20549;-62
2022/01/24 05:43:14;;;;;;;18.48;11.85;;;;;;;;;;4203942;34;20116;-62
2022/01/24 05:45:41;;;;;;;16.15;11.05;;;;;;;;;;4218108;34;20233;-62
2022/01/24 05:48:08;;;;;;;15.07;10.32;;;;;;;;;;4218521;34;20208;-62
2022/01/24 05:50:35;;;;;;;14.82;10.13;;;;;;;;;;4217162;33;20209;-62
2022/01/24 05:53:01;;;;;;;14.43;10.63;;;;;;;;;;4203417;34;20111;-62
2022/01/24 05:55:27;;;;;;;14.98;10.32;;;;;;;;;;4216225;34;20121;-62
2022/01/24 05:57:53;;;;;;;17.27;11.32;;;;;;;;;;4203427;34;20113;-62
2022/01/24 06:00:20;;;;;;;18.58;11.85;;;;;;;;;;4216467;34;20456;-62
2022/01/24 06:02:46;;;;;;;14.52;10.50;;;;;;;;;;4203659;34;20130;-62
2022/01/24 06:05:12;;;;;;;16.00;10.13;;;;;;;;;;4204721;34;20489;-61
2022/01/24 06:07:38;;;;;;;14.73;9.55;;;;;;;;;;4205426;34;20561;-61
2022/01/24 06:10:05;;;;;;;21.33;11.12;;;;;;;;;;4205676;34;20140;-60
2022/01/24 06:12:31;;;;;;;13.88;10.73;;;;;;;;;;4218255;34;20109;-60
2022/01/24 06:14:57;;;;;;;16.20;10.60;;;;;;;;;;4205497;34;20113;-60
2022/01/24 06:17:24;;;;;;;17.37;11.10;;;;;;;;;;4217314;34;20097;-60
2022/01/24 06:19:50;;;;;;;17.45;11.43;;;;;;;;;;4218415;33;20105;-61
2022/01/24 06:22:16;;;;;;;15.85;11.93;;;;;;;;;;4218093;34;20123;-61
2022/01/24 06:24:42;;;;;;;15.52;10.70;;;;;;;;;;4218126;34;20097;-61
2022/01/24 06:27:08;;;;;;;15.48;11.57;;;;;;;;;;4218129;34;20109;-60
2022/01/24 06:29:34;;;;;;;16.65;10.73;;;;;;;;;;4205263;34;20115;-61
2022/01/24 06:32:00;;;;;;;19.67;12.10;;;;;;;;;;4218095;34;20121;-61
2022/01/24 06:34:26;;;;;;;15.45;10.75;;;;;;;;;;4218375;34;20207;-61
2022/01/24 06:36:53;;;;;;;14.50;10.27;;;;;;;;;;4205097;34;20118;-61
2022/01/24 06:39:19;;;;;;;16.50;10.85;;;;;;;;;;4205391;34;20171;-60
2022/01/24 06:41:52;;;;;;;19.92;13.98;;;;;;;;;;4205001;34;20134;-61
2022/01/24 06:44:18;;;;;;;20.88;11.85;;;;;;;;;;4218036;34;20097;-61
2022/01/24 06:46:44;;;;;;;15.15;11.70;;;;;;;;;;4218127;34;20529;-61
2022/01/24 06:49:11;;;;;;;12.80;9.57;;;;;;;;;;4205016;34;20188;-60
2022/01/24 06:51:37;;;;;;;12.73;9.93;;;;;;;;;;4217934;34;20132;-58
2022/01/24 06:54:03;;;;;;;14.25;10.38;;;;;;;;;;4218047;34;20124;-61
2022/01/24 06:56:29;;;;;;;16.77;12.43;;;;;;;;;;4189526;34;20208;-63
2022/01/24 06:58:55;;;;;;;26.50;17.90;;;;;;;;;;4202839;34;20216;-63
2022/01/24 07:01:21;;;;;;;33.42;18.45;;;;;;;;;;4217592;34;20213;-63
2022/01/24 07:03:47;;;;;;;30.85;19.73;;;;;;;;;;4217577;34;20192;-64
2022/01/24 07:06:13;;;;;;;31.73;22.87;;;;;;;;;;4217209;34;20613;-64
2022/01/24 07:08:39;;;;;;;45.95;28.80;;;;;;;;;;4217791;34;20098;-64
2022/01/24 07:11:06;;;;;;;55.83;35.17;;;;;;;;;;4216115;34;20109;-63
2022/01/24 07:13:32;;;;;;;50.97;33.60;;;;;;;;;;4216167;34;20206;-64
2022/01/24 07:16:03;;;;;;;47.80;32.75;;;;;;;;;;4216711;33;20193;-63
2022/01/24 07:20:55;;;;;;;48.58;34.30;;;;;;;;;;4204411;34;20619;-63
2022/01/24 07:23:21;;;;;;;51.60;36.55;;;;;;;;;;4204443;34;20121;-64
2022/01/24 07:25:47;;;;;;;40.33;28.60;;;;;;;;;;4217177;34;20119;-63
2022/01/24 07:28:15;;;;;;;50.42;35.95;;;;;;;;;;4216979;34;20209;-64
2022/01/24 07:30:41;;;;;;;30.10;21.87;;;;;;;;;;4194060;34;20637;-64
2022/01/24 07:33:07;;;;;;;31.77;23.35;;;;;;;;;;4206334;34;20129;-63
2022/01/24 07:35:33;;;;;;;25.52;16.42;;;;;;;;;;4217846;34;20132;-63
2022/01/24 07:37:59;;;;;;;31.87;18.83;;;;;;;;;;4218518;34;20099;-63
2022/01/24 07:40:26;;;;;;;30.80;19.30;;;;;;;;;;4218999;33;20612;-64
2022/01/24 07:45:19;;;;;;;52.20;30.15;;;;;;;;;;4219266;33;20145;-63
2022/01/24 07:47:47;;;;;;;57.35;33.28;;;;;;;;;;4219277;34;20105;-63
2022/01/24 07:50:21;;;;;;;47.50;26.50;;;;;;;;;;4219207;34;20126;-64
2022/01/24 07:52:47;;;;;;;45.63;27.92;;;;;;;;;;4218178;34;20223;-64
2022/01/24 07:55:13;;;;;;;39.90;24.20;;;;;;;;;;4219347;34;20120;-62
2022/01/24 07:57:39;;;;;;;46.75;24.83;;;;;;;;;;4206389;34;20220;-63
2022/01/24 08:00:07;;;;;;;38.72;22.98;;;;;;;;;;4219512;33;20533;-63
2022/01/24 08:02:33;;;;;;;37.35;22.20;;;;;;;;;;4194582;34;20180;-63
2022/01/24 08:05:00;;;;;;;33.45;20.17;;;;;;;;;;4218923;34;20125;-64
2022/01/24 08:07:25;;;;;;;29.42;17.90;;;;;;;;;;4219162;34;20116;-65
2022/01/24 08:09:51;;;;;;;26.85;17.83;;;;;;;;;;4206364;34;20106;-64
2022/01/24 08:12:18;;;;;;;33.67;20.30;;;;;;;;;;4219179;34;20113;-64
2022/01/24 08:14:44;;;;;;;29.10;20.17;;;;;;;;;;4218964;34;20313;-64
2022/01/24 08:17:10;;;;;;;28.35;18.87;;;;;;;;;;4218522;34;20209;-64
2022/01/24 08:19:36;;;;;;;31.40;19.12;;;;;;;;;;4194674;34;20118;-63
2022/01/24 08:22:02;;;;;;;30.92;18.55;;;;;;;;;;4218804;34;20105;-65
2022/01/24 08:24:28;;;;;;;38.80;22.02;;;;;;;;;;4219233;34;20173;-65
2022/01/24 08:26:54;;;;;;;37.35;24.48;;;;;;;;;;4218042;34;20126;-64
2022/01/24 08:29:20;;;;;;;38.63;24.55;;;;;;;;;;4209254;34;20662;-63
2022/01/24 08:31:46;;;;;;;36.13;23.20;;;;;;;;;;4218805;34;20113;-64
2022/01/24 08:34:12;;;;;;;34.42;20.48;;;;;;;;;;4205889;34;20212;-63
2022/01/24 08:36:38;;;;;;;30.60;18.50;;;;;;;;;;4218773;34;20109;-63
2022/01/24 08:39:07;;;;;;;33.03;19.40;;;;;;;;;;4217685;34;20145;-63
2022/01/24 08:42:01;;;;;;;25.30;16.80;;;;;;;;;;4217948;33;20481;-64
2022/01/24 08:47:25;;;;;;;26.85;16.48;;;;;;;;;;4189899;34;20086;-61
2022/01/24 08:49:52;;;;;;;27.65;21.23;;;;;;;;;;4218794;33;20115;-64
2022/01/24 08:52:18;;;;;;;27.92;19.65;;;;;;;;;;4217848;34;20136;-64
2022/01/24 08:54:45;;;;;;;22.23;17.33;;;;;;;;;;4205310;34;20120;-64
2022/01/24 08:57:13;;;;;;;20.83;16.02;;;;;;;;;;4212076;34;20505;-64
2022/01/24 08:59:40;;;;;;;21.12;14.18;;;;;;;;;;4218653;33;20101;-63
2022/01/24 09:02:06;;;;;;;20.15;14.48;;;;;;;;;;4214889;34;20132;-63
2022/01/24 09:04:33;;;;;;;18.15;12.65;;;;;;;;;;4204617;34;20184;-63
2022/01/24 09:07:03;;;;;;;20.67;12.82;;;;;;;;;;4209858;34;20197;-62
2022/01/24 09:09:34;;;;;;;18.85;13.30;;;;;;;;;;4218814;33;20104;-63
2022/01/24 09:12:05;;;;;;;20.73;12.37;;;;;;;;;;4218595;34;20648;-63
2022/01/24 09:14:31;;;;;;;18.85;12.82;;;;;;;;;;4218425;34;20113;-62
2022/01/24 09:16:57;;;;;;;18.37;11.88;;;;;;;;;;4218218;34;20105;-62
2022/01/24 09:19:23;;;;;;;18.65;10.82;;;;;;;;;;4218695;34;20225;-63
2022/01/24 09:21:50;;;;;;;13.50;9.95;;;;;;;;;;4217031;33;20140;-64
2022/01/24 09:24:16;;;;;;;27.00;11.38;;;;;;;;;;4218349;34;20113;-63
2022/01/24 09:26:42;;;;;;;15.10;10.00;;;;;;;;;;4193852;34;20117;-63
2022/01/24 09:29:08;;;;;;;14.35;8.40;;;;;;;;;;4218695;34;20090;-63
2022/01/24 09:31:34;;;;;;;11.40;8.18;;;;;;;;;;4217655;34;20601;-64
2022/01/24 09:34:01;;;;;;;13.73;8.25;;;;;;;;;;4218326;34;20557;-62
2022/01/24 09:36:27;;;;;;;13.93;8.30;;;;;;;;;;4205010;34;20606;-64
2022/01/24 09:38:53;;;;;;;13.57;8.60;;;;;;;;;;4216488;34;20200;-62
2022/01/24 09:41:19;;;;;;;13.45;8.13;;;;;;;;;;4216412;34;20192;-63
2022/01/24 09:43:45;;;;;;;11.75;8.68;;;;;;;;;;4216213;34;20196;-62
2022/01/24 09:46:12;;;;;;;11.32;8.07;;;;;;;;;;4217155;34;20449;-63
2022/01/24 09:48:39;;;;;;;9.57;7.35;;;;;;;;;;4217129;34;20094;-63
2022/01/24 09:51:06;;;;;;;12.30;8.55;;;;;;;;;;4218269;34;20537;-61
2022/01/24 09:53:33;;;;;;;11.52;8.30;;;;;;;;;;4217536;34;20104;-61
2022/01/24 09:56:03;;;;;;;10.13;7.25;;;;;;;;;;4217808;34;20113;-61
2022/01/24 09:58:31;;;;;;;14.57;7.57;;;;;;;;;;4202850;34;20525;-60
2022/01/24 10:00:58;;;;;;;14.05;7.43;;;;;;;;;;4210764;34;20108;-59
2022/01/24 10:03:25;;;;;;;11.40;6.50;;;;;;;;;;4218235;34;20189;-60
2022/01/24 10:05:55;;;;;;;10.13;6.45;;;;;;;;;;4205740;34;20097;-64
2022/01/24 10:08:24;;;;;;;13.23;6.37;;;;;;;;;;4193848;34;20918;-62
2022/01/24 10:10:52;;;;;;;10.18;6.50;;;;;;;;;;4194068;34;20137;-62
2022/01/24 10:16:33;;;;;;;9.27;6.03;;;;;;;;;;4218156;33;20116;-60
2022/01/24 10:19:29;;;;;;;9.02;6.62;;;;;;;;;;4217128;34;20117;-60
2022/01/24 10:22:00;;;;;;;10.00;6.35;;;;;;;;;;4217202;34;20158;-59
2022/01/24 10:24:26;;;;;;;10.05;6.80;;;;;;;;;;4216640;34;20438;-60
2022/01/24 10:27:08;;;;;;;8.80;6.12;;;;;;;;;;4218449;34;20205;-59
2022/01/24 10:29:34;;;;;;;10.02;6.62;;;;;;;;;;4218157;34;20210;-61
2022/01/24 10:32:00;;;;;;;10.32;6.75;;;;;;;;;;4205491;34;20199;-59
2022/01/24 10:34:35;;;;;;;11.65;6.78;;;;;;;;;;4205306;34;20505;-60
2022/01/24 10:37:02;;;;;;;9.88;6.00;;;;;;;;;;4218326;34;20128;-61
2022/01/24 10:42:34;;;;;;;11.18;7.00;;;;;;;;;;4205408;34;20212;-61
2022/01/24 10:45:14;;;;;;;10.70;7.28;;;;;;;;;;4206739;34;20524;-61
2022/01/24 10:47:46;;;;;;;8.73;6.25;;;;;;;;;;4217868;34;20109;-61
2022/01/24 10:50:32;;;;;;;9.13;6.90;;;;;;;;;;4217913;33;20199;-60
2022/01/24 10:52:58;;;;;;;;;;;;;;;;;;4218164;34;20519;-60
2022/01/24 10:55:25;;;;;;;;;;;;;;;;;;4205453;34;19981;-58
2022/01/24 10:58:05;;;;;;;11.32;7.53;;;;;;;;;;4217964;34;19996;-59
2022/01/24 11:00:31;;;;;;;11.32;7.75;;;;;;;;;;4216892;34;20200;-59
2022/01/24 11:03:02;;;;;;;11.80;8.13;;;;;;;;;;4204793;34;20152;-59
2022/01/24 11:05:39;;;;;;;11.75;8.02;;;;;;;;;;4206940;34;20109;-60
2022/01/24 11:08:11;;;;;;;12.68;8.05;;;;;;;;;;4220014;34;20121;-60
2022/01/24 11:10:40;;;;;;;12.10;7.82;;;;;;;;;;4219843;34;20501;-61
2022/01/24 11:13:06;;;;;;;9.15;6.57;;;;;;;;;;4217922;34;20203;-60
2022/01/24 11:15:34;;;;;;;11.20;7.07;;;;;;;;;;4218101;34;20628;-60
2022/01/24 11:18:01;;;;;;;12.70;7.20;;;;;;;;;;4206676;34;20116;-60
2022/01/24 11:20:31;;;;;;;11.10;7.47;;;;;;;;;;4206288;34;20190;-60
2022/01/24 11:23:01;;;;;;;10.65;7.28;;;;;;;;;;4218973;34;20605;-59
2022/01/24 11:25:36;;;;;;;12.80;7.28;;;;;;;;;;4218957;34;20133;-59
2022/01/24 11:28:03;;;;;;;12.73;7.20;;;;;;;;;;4206364;34;20485;-60
2022/01/24 11:30:35;;;;;;;13.00;7.18;;;;;;;;;;4219242;34;20140;-59
2022/01/24 11:33:13;;;;;;;14.82;7.72;;;;;;;;;;4219082;34;20125;-59
2022/01/24 11:35:41;;;;;;;15.07;7.45;;;;;;;;;;4218009;34;20513;-61
2022/01/24 11:38:33;;;;;;;11.10;7.35;;;;;;;;;;4219321;34;20196;-59
2022/01/24 11:41:06;;;;;;;14.15;8.48;;;;;;;;;;4218055;34;20105;-59
2022/01/24 11:43:47;;;;;;;12.88;7.65;;;;;;;;;;4219230;34;20136;-60
2022/01/24 11:46:35;;;;;;;13.27;7.47;;;;;;;;;;4206536;34;20533;-60
2022/01/24 11:49:10;;;;;;;15.75;9.43;;;;;;;;;;4218988;34;20193;-60
2022/01/24 11:51:40;;;;;;;16.20;8.70;;;;;;;;;;4217639;34;20225;-60
2022/01/24 11:54:42;;;;;;;13.27;8.48;;;;;;;;;;4205572;34;20498;-60
2022/01/24 11:57:22;;;;;;;14.48;7.85;;;;;;;;;;4218923;34;20105;-60
2022/01/24 11:59:53;;;;;;;14.60;9.23;;;;;;;;;;4219077;34;20101;-60
2022/01/24 12:02:23;;;;;;;12.40;7.97;;;;;;;;;;4218080;34;20124;-61
2022/01/24 12:05:00;;;;;;;16.08;9.52;;;;;;;;;;4204437;34;20578;-61
2022/01/24 12:07:28;;;;;;;11.77;7.57;;;;;;;;;;4205557;34;20102;-60
2022/01/24 12:09:56;;;;;;;13.65;7.35;;;;;;;;;;4217658;34;20457;-61
2022/01/24 12:12:38;;;;;;;13.43;7.95;;;;;;;;;;4206072;34;20505;-60
2022/01/24 12:15:06;;;;;;;10.45;7.50;;;;;;;;;;4218842;34;20204;-62
2022/01/24 12:17:49;;;;;;;13.23;7.60;;;;;;;;;;4206224;34;20125;-60
2022/01/24 12:20:49;;;;;;;14.75;8.50;;;;;;;;;;4216448;34;20125;-59
2022/01/24 12:23:19;;;;;;;14.25;8.60;;;;;;;;;;4190821;34;20135;-62
2022/01/24 12:26:02;;;;;;;11.55;7.65;;;;;;;;;;4219130;34;20156;-61
2022/01/24 12:28:31;;;;;;;15.45;8.13;;;;;;;;;;4205613;34;20102;-60
2022/01/24 12:31:00;;;;;;;10.45;8.18;;;;;;;;;;4219051;34;20117;-60
2022/01/24 12:33:54;;;;;;;12.60;8.38;;;;;;;;;;4219211;34;20116;-60
2022/01/24 12:36:59;;;;;;;14.93;9.02;;;;;;;;;;4217536;34;20116;-60
2022/01/24 12:39:32;;;;;;;19.75;9.73;;;;;;;;;;4216627;34;20181;-61
2022/01/24 12:42:13;;;;;;;14.95;9.10;;;;;;;;;;4219396;34;20117;-59
2022/01/24 12:47:14;;;;;;;17.95;10.30;;;;;;;;;;4219065;34;20120;-60
2022/01/24 12:49:41;;;;;;;13.82;9.13;;;;;;;;;;4194357;34;20113;-62
2022/01/24 12:52:13;;;;;;;12.13;8.82;;;;;;;;;;4218946;34;20200;-62
2022/01/24 12:54:45;;;;;;;13.18;9.50;;;;;;;;;;4218873;34;20196;-62
2022/01/24 12:57:16;;;;;;;15.25;9.93;;;;;;;;;;4219025;34;20125;-62
2022/01/24 12:59:56;;;;;;;16.35;12.13;;;;;;;;;;4206020;34;20166;-62
2022/01/24 13:02:24;;;;;;;19.48;12.43;;;;;;;;;;4219158;34;20093;-60
2022/01/24 13:04:52;;;;;;;17.95;12.73;;;;;;;;;;4218697;34;20120;-61
2022/01/24 13:07:18;;;;;;;17.67;12.27;;;;;;;;;;4218903;34;20109;-60
2022/01/24 13:09:45;;;;;;;17.37;11.00;;;;;;;;;;4218967;34;20283;-61
2022/01/24 13:12:11;;;;;;;13.95;10.57;;;;;;;;;;4218873;34;20189;-61
2022/01/24 13:25:28;;;;;;;12.50;9.20;;;;;;;;;;4218889;33;20105;-61
2022/01/24 13:28:03;;;;;;;24.05;14.52;;;;;;;;;;4218299;34;20093;-61
2022/01/24 13:30:34;;;;;;;32.45;18.15;;;;;;;;;;4218671;33;20109;-61
2022/01/24 13:33:05;;;;;;;25.58;14.50;;;;;;;;;;4194404;34;20128;-61
2022/01/24 13:35:34;;;;;;;11.80;7.80;;;;;;;;;;4194249;34;20482;-61
2022/01/24 13:38:06;;;;;;;12.43;6.47;;;;;;;;;;4218528;34;20109;-61
2022/01/24 13:40:33;;;;;;;11.12;7.55;;;;;;;;;;4205591;34;20548;-61
2022/01/24 13:42:59;;;;;;;13.75;10.60;;;;;;;;;;4205603;34;20120;-60
2022/01/24 13:45:25;;;;;;;13.80;10.52;;;;;;;;;;4218611;34;20197;-62
2022/01/24 13:47:58;;;;;;;15.23;10.68;;;;;;;;;;4218731;34;20321;-63
2022/01/24 13:50:25;;;;;;;14.23;9.77;;;;;;;;;;4205672;34;20104;-63
2022/01/24 13:52:51;;;;;;;24.60;10.93;;;;;;;;;;4218473;34;20117;-62
2022/01/24 13:55:19;;;;;;;19.75;12.40;;;;;;;;;;4218413;34;20120;-61
2022/01/24 13:57:47;;;;;;;14.70;10.48;;;;;;;;;;4218368;34;20120;-62
2022/01/24 14:00:16;;;;;;;16.60;9.52;;;;;;;;;;4218427;34;20131;-61
2022/01/24 14:02:42;;;;;;;22.17;15.50;;;;;;;;;;4218252;34;20124;-62
2022/01/24 14:05:09;;;;;;;27.73;17.80;;;;;;;;;;4218405;34;20102;-62
2022/01/24 14:07:42;;;;;;;32.53;21.50;;;;;;;;;;4218385;34;20680;-63
2022/01/24 14:10:15;;;;;;;30.37;20.60;;;;;;;;;;4206438;34;20168;-62
2022/01/24 14:12:53;;;;;;;28.27;15.43;;;;;;;;;;4205190;34;20117;-62
2022/01/24 14:16:00;;;;;;;25.60;16.90;;;;;;;;;;4218432;33;20108;-62
2022/01/24 14:20:46;;;;;;;26.75;17.02;;;;;;;;;;4218438;34;20082;-60
2022/01/24 14:23:36;;;;;;;21.70;14.85;;;;;;;;;;4205188;34;20105;-62
2022/01/24 14:26:19;;;;;;;20.75;13.20;;;;;;;;;;4218338;34;20109;-62
2022/01/24 14:28:47;;;;;;;18.80;12.10;;;;;;;;;;4218150;34;20113;-62
2022/01/24 14:31:14;;;;;;;21.37;12.68;;;;;;;;;;4218249;34;20549;-62
2022/01/24 14:33:44;;;;;;;27.13;13.65;;;;;;;;;;4218129;34;20128;-61
2022/01/24 14:36:16;;;;;;;21.27;12.90;;;;;;;;;;4218028;34;20526;-63
2022/01/24 14:38:48;;;;;;;20.75;13.38;;;;;;;;;;4217150;34;20633;-63
2022/01/24 14:41:18;;;;;;;21.95;13.65;;;;;;;;;;4205086;34;20105;-62
2022/01/24 14:46:32;;;;;;;;;;;;;;;;;;4207373;34;20122;-63
2022/01/24 14:49:04;;;;;;;30.80;16.20;;;;;;;;;;4218037;34;19969;-63
2022/01/24 14:51:32;;;;;;;23.90;15.18;;;;;;;;;;4218105;34;20542;-62
2022/01/24 14:54:04;;;;;;;23.98;15.60;;;;;;;;;;4204931;34;20205;-64
2022/01/24 14:56:31;;;;;;;30.88;16.98;;;;;;;;;;4193024;34;20125;-63
2022/01/24 14:58:57;;;;;;;46.03;18.27;;;;;;;;;;4218110;34;20112;-65
2022/01/24 15:01:23;;;;;;;39.65;18.75;;;;;;;;;;4204876;34;20110;-66
2022/01/24 15:03:50;;;;;;;50.00;19.10;;;;;;;;;;4217867;34;20113;-63
2022/01/24 15:06:16;;;;;;;47.78;18.62;;;;;;;;;;4218067;34;20556;-63
2022/01/24 15:08:46;;;;;;;39.83;17.70;;;;;;;;;;4217873;34;20093;-64
2022/01/24 15:11:14;;;;;;;48.70;17.92;;;;;;;;;;4218075;34;20113;-64
2022/01/24 15:13:51;;;;;;;47.47;17.45;;;;;;;;;;4217771;34;20565;-64
2022/01/24 15:16:18;;;;;;;41.37;15.27;;;;;;;;;;4217748;33;20109;-61
2022/01/24 15:26:49;;;;;;;45.97;14.63;;;;;;;;;;4205089;34;20116;-61
2022/01/24 15:29:17;;;;;;;41.00;13.90;;;;;;;;;;4217772;34;20129;-61
2022/01/24 15:31:45;;;;;;;35.90;12.98;;;;;;;;;;4217520;34;20217;-62
2022/01/24 15:34:13;;;;;;;31.67;13.23;;;;;;;;;;4217282;34;20109;-63
2022/01/24 15:36:43;;;;;;;35.90;14.38;;;;;;;;;;4212631;34;20112;-62
2022/01/24 15:39:10;;;;;;;31.50;14.45;;;;;;;;;;4212389;34;20082;-62
2022/01/24 15:41:46;;;;;;;26.35;12.75;;;;;;;;;;4215993;34;20118;-62
2022/01/24 15:46:59;;;;;;;25.40;11.82;;;;;;;;;;4212869;34;20124;-63
2022/01/24 15:49:25;;;;;;;22.08;11.12;;;;;;;;;;4204669;34;20128;-63
2022/01/24 15:51:52;;;;;;;26.10;12.15;;;;;;;;;;4205488;34;20106;-61
2022/01/24 15:54:21;;;;;;;20.85;13.13;;;;;;;;;;4204369;34;20114;-62
2022/01/24 15:59:32;;;;;;;19.42;10.95;;;;;;;;;;4211563;34;20489;-62
2022/01/24 16:01:58;;;;;;;15.52;11.68;;;;;;;;;;4215620;34;20916;-60
2022/01/24 16:04:24;;;;;;;15.18;11.70;;;;;;;;;;4218321;34;20181;-62
2022/01/24 16:06:52;;;;;;;14.73;10.40;;;;;;;;;;4218675;34;20093;-63
2022/01/24 16:09:18;;;;;;;16.27;10.45;;;;;;;;;;4210232;34;20137;-62
2022/01/24 16:11:44;;;;;;;14.77;10.07;;;;;;;;;;4209318;34;20125;-63
2022/01/24 16:14:13;;;;;;;14.60;9.25;;;;;;;;;;4218153;34;20121;-64
2022/01/24 16:16:39;;;;;;;14.50;8.90;;;;;;;;;;4219471;34;20096;-64
2022/01/24 16:19:05;;;;;;;12.00;8.52;;;;;;;;;;4219285;34;20133;-64
2022/01/24 16:21:41;;;;;;;15.45;8.70;;;;;;;;;;4219205;33;20666;-63
2022/01/24 16:26:41;;;;;;;21.62;10.50;;;;;;;;;;4219117;34;20431;-62
2022/01/24 16:29:07;;;;;;;21.98;11.63;;;;;;;;;;4219221;34;20152;-64
2022/01/24 16:31:33;;;;;;;19.33;10.27;;;;;;;;;;4219264;33;20128;-62
2022/01/24 16:33:59;;;;;;;21.23;10.32;;;;;;;;;;4214630;34;20530;-63
2022/01/24 16:36:25;;;;;;;26.83;10.80;;;;;;;;;;4211207;34;20117;-64
2022/01/24 16:38:51;;;;;;;23.62;10.80;;;;;;;;;;4212783;34;20108;-63
2022/01/24 16:41:32;;;;;;;30.90;10.95;;;;;;;;;;4217305;34;20122;-63
2022/01/24 16:44:19;;;;;;;20.73;9.75;;;;;;;;;;4206290;34;20110;-62
2022/01/24 16:49:47;;;;;;;17.83;10.77;;;;;;;;;;4168257;34;20121;-62
2022/01/24 16:52:13;;;;;;;20.45;11.80;;;;;;;;;;4196213;34;20110;-62
2022/01/24 16:54:47;;;;;;;21.58;10.48;;;;;;;;;;4193666;34;20169;-63
2022/01/24 16:57:15;;;;;;;13.65;10.35;;;;;;;;;;4210853;34;20120;-61
2022/01/24 16:59:42;;;;;;;11.40;8.70;;;;;;;;;;4204896;34;20530;-63
2022/01/24 17:02:09;;;;;;;14.95;9.27;;;;;;;;;;4204395;34;20094;-64
2022/01/24 17:04:35;;;;;;;12.77;9.15;;;;;;;;;;4203205;34;20189;-64
2022/01/24 17:07:02;;;;;;;10.88;9.45;;;;;;;;;;4205021;34;20112;-64
2022/01/24 17:09:28;;;;;;;13.77;8.85;;;;;;;;;;4210312;34;20535;-61
2022/01/24 17:11:58;;;;;;;11.12;9.00;;;;;;;;;;4196002;34;20114;-62
2022/01/24 17:14:27;;;;;;;13.13;9.55;;;;;;;;;;4211204;34;20507;-63
2022/01/24 17:16:53;;;;;;;13.20;8.75;;;;;;;;;;4217910;34;20196;-66